Sachse, Texas
Current Conditions -  °F | °C
As of 7:35 AM on Friday 19 Dec 2014 (Local Time) from KF46 Reporting Station
Moderate Rain Moderate Rain  
Wind Chill: 45°   Ceiling: 400
Heat Index: 45°   Visibility: 4mi
Dew Point: 45°   Wind: 3mph
Humidity: 100%   Direction: 60°ENE
Pressure: 30.15"   Gusts: NA
Location:  32.9674°N, 96.5785°W
Report Text: KF46 191335Z AUTO 06003KT 4SM RA OVC004 07/07 A3015 RMK AO2 P0002 T00700070
Loading
Personal Weather Stations






























Interactive Weather Map New forecast layout! Learn more

10-Day Weather Forecast

Advertisements
Track Severe Weather on mobile